佐賀 の空港の天気 - METARとTAF

佐賀空港 ( RJFS / HSG ) - 佐賀県佐賀市
飛行場実況気象(Metar)
観測時間08/05 08:00 JST (08/04 23:00 UTC)
風向・風速南 2m/s
視程10km以上
天気現象
少しの雲 雲底高度 300m
気温29℃
湿度84%
気圧1016hPa
METARRJFS 042300Z 17003KT 150V210 9999 FEW010 BKN/// 29/26 Q1016
過去の天気等 Google飛行場航空写真 Wunderground天気予報

過去48時間のMETAR

飛行場予報(TAF)
発表時間: 8/05 02:06 JST (8/04 17:06 UTC)
予報対象時間: 5日3時 JST ~ 6日9時 JST
風向・風速南西 3m/s
視程10km以上
少しの雲 雲底高度 300m
全天の4割程度の雲 雲底高度 910m
5日4時 JST ~ 5日6時 JST に徐々に
風向・風速南 4m/s
5日15時 JST ~ 5日18時 JST に徐々に
風向・風速南南西 6m/s
6日0時 JST ~ 6日3時 JST に徐々に
風向・風速南 5m/s
TAF RJFS 041706Z 0418/0600 23006KT 9999 FEW010 SCT030
BECMG 0419/0421 17007KT
BECMG 0506/0509 20011KT
BECMG 0515/0518 17010KT
日本の空港のMETAR・TAFへのリンク

RJTT 東京国際空港
RJAA 新東京国際空港
RJBB 関西国際空港
RJOO 大阪空港
RJGG 中部国際空港
RJCC 新千歳空港
RJFF 福岡空港
ROAH 那覇空港


RJEC 旭川空港
RJCH 函館空港
RJCK 釧路空港
RJCM 女満別空港
RJCB 帯広空港
RJSA 青森空港
RJSS 仙台空港
RJSK 秋田空港
RJSF 福島空港
RJAH 茨城空港
RJSN 新潟空港
RJNT 富山空港
RJNK 小松飛行場
RJNS 静岡空港
RJOH 美保飛行場
RJOC 出雲空港
RJOB 岡山空港
RJOA 広島空港
RJOI 岩国飛行場
RJOT 高松空港
RJOM 松山空港
RJOK 高知空港
RJFR 北九州空港
RJFT 熊本空港
RJFU 長崎空港
RJFS 佐賀空港
RJFO 大分空港
RJFM 宮崎空港
RJFK 鹿児島空港
ROIG 石垣島空港
RJTY 横田飛行場
ROTM 普天間飛行場
RODN 嘉手納飛行場